Bacots, Mississippi
Current Conditions -  °F | °C
As of 10:53 AM on Thursday 27 Nov 2014 (Local Time) from KMCB Reporting Station
Clear Clear  
Wind Chill: 52°   Ceiling: Unl
Heat Index: 52°   Visibility: 10mi
Dew Point: 29°   Wind: 12mph
Humidity: 41%   Direction: 340°NNW
Pressure: 30.45"   Gusts: NA
Location:  31.1693°N, 90.3678°W
Report Text: KMCB 271653Z AUTO 34010KT 10SM CLR 11/M02 A3045 RMK AO2 SLP310 T01111017
Loading
Personal Weather Stations






























Interactive Weather Map New forecast layout! Learn more

10-Day Weather Forecast

Advertisements
Track Severe Weather on mobile